Time;durP1;ratioP1;P1;durP2;ratioP2;P2;SDS_P1;SDS_P2;PMS_P1;PMS_P2;Temp;Humidity;BMP_temperature;BMP_pressure;BME280_temperature;BME280_humidity;BME280_pressure;Samples;Min_cycle;Max_cycle;Signal;HPM_P1;HPM_P2
2021/11/26 00:02:16;;;;;;;12.70;9.00;;;7.60;1.00;;;;;;4973022;28;20202;-70
2021/11/26 00:04:43;;;;;;;11.90;8.20;;;7.60;1.00;;;;;;4972796;28;20210;-80
2021/11/26 00:07:11;;;;;;;12.17;8.60;;;7.60;1.00;;;;;;4972643;28;20268;-79
2021/11/26 00:09:38;;;;;;;11.90;8.30;;;7.60;1.00;;;;;;4971929;28;20321;-67
2021/11/26 00:12:08;;;;;;;12.70;8.67;;;7.50;1.00;;;;;;4972495;28;20669;-67
2021/11/26 00:14:36;;;;;;;14.47;9.90;;;7.60;1.00;;;;;;4971904;28;20631;-75
2021/11/26 00:17:05;;;;;;;17.37;10.97;;;7.50;1.00;;;;;;4972351;28;20213;-79
2021/11/26 00:19:32;;;;;;;17.83;11.57;;;7.50;1.00;;;;;;4971917;28;20206;-80
2021/11/26 00:21:59;;;;;;;19.10;11.60;;;7.50;1.00;;;;;;4972171;28;20214;-69
2021/11/26 00:24:26;;;;;;;16.27;10.77;;;7.40;1.00;;;;;;4971887;28;20578;-67
2021/11/26 00:26:53;;;;;;;19.33;11.27;;;7.40;1.00;;;;;;4972592;28;20206;-82
2021/11/26 00:29:21;;;;;;;17.83;11.47;;;7.40;1.00;;;;;;4971562;28;20728;-67
2021/11/26 00:31:48;;;;;;;17.17;10.73;;;7.40;1.00;;;;;;4972093;28;20244;-67
2021/11/26 00:34:15;;;;;;;20.73;12.30;;;7.40;1.00;;;;;;4972549;28;20214;-67
2021/11/26 00:36:42;;;;;;;15.63;11.30;;;7.40;1.00;;;;;;4971666;28;20209;-79
2021/11/26 00:39:10;;;;;;;20.07;12.37;;;7.40;1.00;;;;;;4972130;28;20214;-80
2021/11/26 00:41:37;;;;;;;18.00;11.63;;;7.30;1.00;;;;;;4971498;28;20209;-67
2021/11/26 00:44:04;;;;;;;22.00;13.67;;;7.30;1.00;;;;;;4971834;28;20749;-67
2021/11/26 00:46:33;;;;;;;17.60;12.07;;;7.20;1.00;;;;;;4971494;28;20209;-67
2021/11/26 00:49:00;;;;;;;20.93;13.47;;;7.20;1.00;;;;;;4971630;28;20247;-67
2021/11/26 00:51:30;;;;;;;18.87;11.77;;;7.20;1.00;;;;;;4971802;28;20621;-67
2021/11/26 00:53:57;;;;;;;18.20;13.37;;;7.20;1.00;;;;;;4971670;28;20219;-77
2021/11/26 00:56:24;;;;;;;21.07;12.97;;;7.20;1.00;;;;;;4971627;28;20230;-72
2021/11/26 00:58:51;;;;;;;18.40;12.90;;;7.20;1.00;;;;;;4971669;28;20225;-67
2021/11/26 01:01:18;;;;;;;19.30;12.97;;;7.20;1.00;;;;;;4971895;28;20213;-68
2021/11/26 01:03:47;;;;;;;21.23;12.20;;;7.10;1.00;;;;;;4971747;28;20694;-67
2021/11/26 01:06:14;;;;;;;18.37;12.17;;;7.10;1.00;;;;;;4972114;28;20209;-67
2021/11/26 01:08:41;;;;;;;20.00;12.17;;;7.10;1.00;;;;;;4971346;28;20233;-67
2021/11/26 01:11:08;;;;;;;19.17;11.77;;;7.10;1.00;;;;;;4971573;28;20645;-70
2021/11/26 01:13:35;;;;;;;20.33;11.63;;;7.10;1.00;;;;;;4971241;28;20244;-82
2021/11/26 01:16:03;;;;;;;20.87;12.33;;;7.20;1.00;;;;;;4971557;28;20213;-67
2021/11/26 01:18:30;;;;;;;18.53;11.70;;;7.20;1.00;;;;;;4971288;28;20260;-78
2021/11/26 01:20:59;;;;;;;21.53;12.90;;;7.20;1.00;;;;;;4971734;28;20280;-70
2021/11/26 01:23:26;;;;;;;21.70;12.37;;;7.20;1.00;;;;;;4969212;28;20260;-80
2021/11/26 01:25:53;;;;;;;23.53;14.80;;;7.10;1.00;;;;;;4971499;28;20209;-81
2021/11/26 01:28:20;;;;;;;22.43;14.30;;;7.00;1.00;;;;;;4970944;28;20717;-67
2021/11/26 01:30:48;;;;;;;26.27;15.73;;;7.00;1.00;;;;;;4971245;28;20740;-67
2021/11/26 01:33:18;;;;;;;22.70;15.20;;;7.00;1.00;;;;;;4971661;28;20686;-67
2021/11/26 01:35:50;;;;;;;25.80;15.90;;;7.00;1.00;;;;;;4972178;28;20213;-83
2021/11/26 01:38:19;;;;;;;26.57;16.53;;;6.90;1.00;;;;;;4971815;28;20241;-68
2021/11/26 01:40:47;;;;;;;26.97;17.17;;;6.80;1.00;;;;;;4971553;28;20209;-69
2021/11/26 01:43:15;;;;;;;31.87;17.63;;;6.90;1.00;;;;;;4971479;28;20210;-67
2021/11/26 01:45:44;;;;;;;26.90;16.07;;;6.90;1.00;;;;;;4971360;28;20658;-68
2021/11/26 01:48:12;;;;;;;26.20;16.37;;;7.00;1.00;;;;;;4971468;28;20279;-80
2021/11/26 01:50:39;;;;;;;29.67;19.47;;;6.90;1.00;;;;;;4971309;28;20238;-79
2021/11/26 01:53:06;;;;;;;29.40;16.67;;;6.90;1.00;;;;;;4971337;28;20268;-67
2021/11/26 01:55:35;;;;;;;24.50;15.90;;;6.80;1.00;;;;;;4970852;28;20209;-68
2021/11/26 01:58:02;;;;;;;28.77;16.90;;;6.80;1.00;;;;;;4971299;28;20276;-79
2021/11/26 02:00:31;;;;;;;25.63;16.53;;;6.80;1.00;;;;;;4970652;28;20257;-78
2021/11/26 02:02:59;;;;;;;23.27;15.00;;;6.90;1.00;;;;;;4971666;28;20222;-81
2021/11/26 02:05:26;;;;;;;27.23;15.73;;;6.90;1.00;;;;;;4970611;28;20677;-79
2021/11/26 02:07:53;;;;;;;24.77;16.67;;;6.80;1.00;;;;;;4971683;28;20624;-68
2021/11/26 02:10:21;;;;;;;22.77;14.97;;;6.80;1.00;;;;;;4970429;28;20233;-77
2021/11/26 02:12:49;;;;;;;22.80;14.43;;;6.70;1.00;;;;;;4957868;28;20260;-68
2021/11/26 02:15:22;;;;;;;20.40;14.23;;;6.70;1.00;;;;;;4974277;28;20206;-79
2021/11/26 02:17:50;;;;;;;25.73;16.17;;;6.70;1.00;;;;;;4974555;28;20256;-75
2021/11/26 02:20:20;;;;;;;22.80;17.23;;;6.70;1.00;;;;;;4974909;28;20221;-73
2021/11/26 02:22:47;;;;;;;21.33;15.87;;;6.70;1.00;;;;;;4974744;28;20206;-71
2021/11/26 02:25:15;;;;;;;21.50;14.20;;;6.80;1.00;;;;;;4974885;28;20266;-79
2021/11/26 02:27:43;;;;;;;16.57;12.17;;;6.70;1.00;;;;;;4974358;28;20296;-76
2021/11/26 02:30:15;;;;;;;20.57;12.90;;;6.60;1.00;;;;;;4974334;28;20717;-67
2021/11/26 02:32:42;;;;;;;22.10;14.27;;;6.60;1.00;;;;;;4973756;28;20210;-67
2021/11/26 02:35:11;;;;;;;18.43;13.07;;;6.60;1.00;;;;;;4974396;28;20209;-67
2021/11/26 02:37:40;;;;;;;18.13;12.90;;;6.50;1.00;;;;;;4973829;28;20213;-69
2021/11/26 02:40:09;;;;;;;20.73;13.60;;;6.40;1.00;;;;;;4974345;28;20280;-68
2021/11/26 02:42:38;;;;;;;18.87;11.93;;;6.40;1.00;;;;;;4974084;28;20268;-82
2021/11/26 02:45:06;;;;;;;17.90;12.10;;;6.40;1.00;;;;;;4974138;28;20261;-69
2021/11/26 02:47:34;;;;;;;18.93;13.10;;;6.40;1.00;;;;;;4973817;28;20763;-81
2021/11/26 02:50:04;;;;;;;20.30;13.13;;;6.30;1.00;;;;;;4973603;28;20230;-68
2021/11/26 02:52:31;;;;;;;18.90;12.20;;;6.30;1.00;;;;;;4973655;28;20256;-68
2021/11/26 02:55:00;;;;;;;22.63;12.70;;;6.30;1.00;;;;;;4973932;28;20693;-77
2021/11/26 02:57:27;;;;;;;24.53;14.57;;;6.30;1.00;;;;;;4973734;28;20214;-81
2021/11/26 02:59:54;;;;;;;21.93;14.80;;;6.20;1.00;;;;;;4973993;28;20272;-81
2021/11/26 03:02:21;;;;;;;21.60;14.23;;;6.20;1.00;;;;;;4973361;28;20632;-67
2021/11/26 03:04:48;;;;;;;22.33;14.63;;;6.20;1.00;;;;;;4974113;28;20217;-75
2021/11/26 03:07:15;;;;;;;22.17;13.53;;;6.20;1.00;;;;;;4973804;28;20578;-68
2021/11/26 03:09:42;;;;;;;26.47;14.90;;;6.10;1.00;;;;;;4973672;28;20233;-79
2021/11/26 03:12:10;;;;;;;23.30;14.30;;;6.10;1.00;;;;;;4973464;28;20740;-72
2021/11/26 03:14:38;;;;;;;21.97;13.90;;;6.20;1.00;;;;;;4973180;28;20697;-69
2021/11/26 03:17:05;;;;;;;23.83;15.17;;;6.30;1.00;;;;;;4973498;28;20272;-81
2021/11/26 03:19:32;;;;;;;22.27;14.33;;;6.20;1.00;;;;;;4973321;28;20264;-80
2021/11/26 03:21:59;;;;;;;24.33;14.20;;;6.10;1.00;;;;;;4973023;28;20677;-68
2021/11/26 03:24:26;;;;;;;23.37;14.90;;;6.10;1.00;;;;;;4973293;28;20206;-81
2021/11/26 03:26:53;;;;;;;24.23;16.10;;;6.10;1.00;;;;;;4972235;28;20268;-79
2021/11/26 03:29:22;;;;;;;23.27;14.57;;;6.10;1.00;;;;;;4972623;28;20281;-72
2021/11/26 03:31:49;;;;;;;21.73;14.83;;;6.10;1.00;;;;;;4973092;28;20214;-81
2021/11/26 03:34:16;;;;;;;21.00;14.37;;;6.10;1.00;;;;;;4973898;28;20205;-83
2021/11/26 03:36:43;;;;;;;26.17;15.47;;;6.00;1.00;;;;;;4973255;28;20289;-80
2021/11/26 03:39:10;;;;;;;23.40;15.57;;;6.10;1.00;;;;;;4973366;28;20272;-67
2021/11/26 03:41:37;;;;;;;24.20;15.53;;;6.00;1.00;;;;;;4972653;28;20679;-80
2021/11/26 03:44:04;;;;;;;23.43;15.17;;;6.00;1.00;;;;;;4973022;28;20213;-76
2021/11/26 03:46:33;;;;;;;25.00;15.40;;;5.90;1.00;;;;;;4972705;28;20345;-67
2021/11/26 03:49:00;;;;;;;21.73;14.10;;;5.90;1.00;;;;;;4972798;28;20292;-68
2021/11/26 03:51:28;;;;;;;27.93;16.63;;;6.00;1.00;;;;;;4972339;28;20209;-81
2021/11/26 03:53:55;;;;;;;25.87;16.13;;;5.90;1.00;;;;;;4980398;28;20208;-80
2021/11/26 03:56:22;;;;;;;21.00;14.50;;;5.90;1.00;;;;;;4978487;28;20644;-67
2021/11/26 03:58:49;;;;;;;21.90;14.47;;;5.90;1.00;;;;;;4972689;28;20210;-67
2021/11/26 04:01:16;;;;;;;25.60;16.37;;;5.80;1.00;;;;;;4973459;28;20288;-81
2021/11/26 04:03:44;;;;;;;23.57;14.23;;;5.80;1.00;;;;;;4972559;28;20202;-80
2021/11/26 04:06:11;;;;;;;25.50;14.80;;;5.70;1.00;;;;;;4972456;28;20209;-83
2021/11/26 04:08:38;;;;;;;22.43;13.70;;;5.70;1.00;;;;;;4972234;28;20555;-76
2021/11/26 04:11:05;;;;;;;23.10;15.90;;;5.70;1.00;;;;;;4972728;28;20729;-82
2021/11/26 04:13:32;;;;;;;25.40;15.83;;;5.70;1.00;;;;;;4971993;28;20209;-67
2021/11/26 04:16:04;;;;;;;20.63;13.73;;;5.70;99.90;;;;;;4972760;28;20209;-67
2021/11/26 04:18:33;;;;;;;25.07;16.50;;;5.70;1.00;;;;;;4972286;28;20217;-67
2021/11/26 04:21:02;;;;;;;25.53;16.03;;;5.70;1.00;;;;;;4959330;28;20304;-77
2021/11/26 04:23:29;;;;;;;17.87;13.17;;;5.70;1.00;;;;;;4972144;28;20210;-78
2021/11/26 04:25:56;;;;;;;22.53;13.10;;;5.60;1.00;;;;;;4972597;28;20209;-80
2021/11/26 04:28:23;;;;;;;22.77;15.83;;;5.50;1.00;;;;;;4971923;28;20209;-80
2021/11/26 04:30:50;;;;;;;21.90;14.13;;;5.50;1.00;;;;;;4972111;28;20300;-77
2021/11/26 04:33:17;;;;;;;20.40;13.57;;;5.50;1.00;;;;;;4972436;28;20206;-67
2021/11/26 04:35:47;;;;;;;24.13;14.47;;;5.50;1.00;;;;;;4972327;28;20209;-81
2021/11/26 04:38:16;;;;;;;20.37;14.03;;;5.40;1.00;;;;;;4972142;28;20253;-78
2021/11/26 04:40:43;;;;;;;18.63;11.90;;;5.40;1.00;;;;;;4972253;28;20284;-83
2021/11/26 04:43:11;;;;;;;17.73;10.97;;;5.30;1.00;;;;;;4972233;28;20205;-75
2021/11/26 04:45:38;;;;;;;17.23;12.17;;;5.30;1.00;;;;;;4971578;28;20214;-67
2021/11/26 04:48:05;;;;;;;18.77;11.37;;;5.30;1.00;;;;;;4971996;28;20217;-81
2021/11/26 04:50:32;;;;;;;16.17;12.13;;;5.30;1.00;;;;;;4971493;28;20233;-77
2021/11/26 04:52:59;;;;;;;18.43;11.40;;;5.30;1.00;;;;;;4971857;28;20243;-74
2021/11/26 04:55:29;;;;;;;18.10;10.40;;;5.40;1.00;;;;;;4958642;28;20205;-67
2021/11/26 04:57:56;;;;;;;19.17;12.60;;;5.30;1.00;;;;;;4972305;28;20213;-80
2021/11/26 05:00:23;;;;;;;18.07;12.13;;;5.30;1.00;;;;;;4971460;28;20256;-77
2021/11/26 05:02:51;;;;;;;17.90;11.70;;;5.30;1.00;;;;;;4971770;28;20220;-67
2021/11/26 05:05:18;;;;;;;16.93;10.83;;;5.20;1.00;;;;;;4971325;28;20630;-67
2021/11/26 05:07:45;;;;;;;17.60;12.23;;;5.20;1.00;;;;;;4972359;28;20637;-79
2021/11/26 05:10:13;;;;;;;19.57;13.33;;;5.10;1.00;;;;;;4971879;28;20244;-79
2021/11/26 05:12:46;;;;;;;16.63;11.20;;;5.20;1.00;;;;;;4971581;28;20210;-67
2021/11/26 05:15:15;;;;;;;17.70;12.70;;;5.20;1.00;;;;;;4971719;28;20212;-79
2021/11/26 05:17:42;;;;;;;22.00;13.03;;;5.10;1.00;;;;;;4970826;28;20209;-79
2021/11/26 05:20:10;;;;;;;22.17;13.30;;;5.10;1.00;;;;;;4971602;28;20260;-67
2021/11/26 05:22:37;;;;;;;23.37;14.70;;;5.10;1.00;;;;;;4971554;28;20613;-77
2021/11/26 05:25:04;;;;;;;21.87;15.33;;;5.00;1.00;;;;;;4971847;28;20271;-80
2021/11/26 05:27:31;;;;;;;23.57;14.30;;;5.00;1.00;;;;;;4970955;28;20210;-75
2021/11/26 05:29:59;;;;;;;21.43;15.80;;;5.00;1.00;;;;;;4971512;28;20280;-71
2021/11/26 05:32:26;;;;;;;25.33;18.57;;;5.00;1.00;;;;;;4970600;28;20673;-67
2021/11/26 05:34:53;;;;;;;23.97;16.63;;;4.90;1.00;;;;;;4971155;28;20213;-67
2021/11/26 05:37:20;;;;;;;23.27;17.00;;;4.90;1.00;;;;;;4970997;28;20209;-79
2021/11/26 05:39:47;;;;;;;21.00;15.33;;;4.90;1.00;;;;;;4971321;28;20632;-67
2021/11/26 05:42:14;;;;;;;22.67;16.20;;;5.00;1.00;;;;;;4972001;28;20213;-79
2021/11/26 05:44:41;;;;;;;23.67;16.43;;;5.00;1.00;;;;;;4970829;28;20209;-80
2021/11/26 05:47:09;;;;;;;26.57;17.43;;;4.90;1.00;;;;;;4971120;28;20218;-79
2021/11/26 05:49:36;;;;;;;21.90;15.83;;;4.90;1.00;;;;;;4972538;28;21052;-68
2021/11/26 05:52:04;;;;;;;24.20;17.13;;;4.90;1.00;;;;;;4975081;28;20647;-79
2021/11/26 05:54:31;;;;;;;27.70;18.27;;;4.80;1.00;;;;;;4974694;28;20264;-68
2021/11/26 05:56:58;;;;;;;26.53;18.50;;;4.80;1.00;;;;;;4974497;28;20214;-78
2021/11/26 05:59:25;;;;;;;23.13;17.67;;;4.80;1.00;;;;;;4974559;28;20268;-75
2021/11/26 06:01:52;;;;;;;26.43;18.43;;;4.80;1.00;;;;;;4974054;28;20681;-67
2021/11/26 06:04:20;;;;;;;23.50;17.37;;;4.80;1.00;;;;;;4974815;28;20696;-68
2021/11/26 06:06:47;;;;;;;26.80;17.97;;;4.80;1.00;;;;;;4974783;28;20260;-68
2021/11/26 06:09:14;;;;;;;28.37;18.77;;;4.80;1.00;;;;;;4975195;28;20267;-77
2021/11/26 06:11:41;;;;;;;29.87;19.87;;;4.80;1.00;;;;;;4974130;28;20291;-74
2021/11/26 06:14:08;;;;;;;27.33;18.30;;;4.90;1.00;;;;;;4974682;28;20222;-82
2021/11/26 06:16:35;;;;;;;31.50;18.63;;;4.90;1.00;;;;;;4974225;28;20210;-79
2021/11/26 06:19:02;;;;;;;29.50;21.10;;;4.90;1.00;;;;;;4974541;28;20202;-78
2021/11/26 06:21:30;;;;;;;30.67;21.60;;;5.00;1.00;;;;;;4974124;28;20213;-78
2021/11/26 06:23:58;;;;;;;26.50;17.20;;;4.90;1.00;;;;;;4974439;28;20221;-73
2021/11/26 06:26:25;;;;;;;28.33;19.07;;;4.90;1.00;;;;;;4973964;28;20260;-71
2021/11/26 06:28:52;;;;;;;28.53;20.27;;;4.90;1.00;;;;;;4974088;28;20221;-78
2021/11/26 06:31:19;;;;;;;27.03;19.27;;;4.90;1.00;;;;;;4973878;28;20296;-67
2021/11/26 06:33:46;;;;;;;30.83;18.90;;;4.80;1.00;;;;;;4974828;28;20235;-71
2021/11/26 06:36:13;;;;;;;29.33;19.60;;;4.80;1.00;;;;;;4974541;28;20221;-67
2021/11/26 06:38:41;;;;;;;27.07;18.53;;;4.80;1.00;;;;;;4973972;28;20567;-68
2021/11/26 06:41:08;;;;;;;26.43;19.23;;;4.70;1.00;;;;;;4974162;28;20209;-79
2021/11/26 06:43:35;;;;;;;25.87;18.23;;;4.70;1.00;;;;;;4973836;28;20217;-68
2021/11/26 06:46:02;;;;;;;28.83;18.73;;;4.80;1.00;;;;;;4973847;28;20585;-67
2021/11/26 06:48:29;;;;;;;28.67;18.37;;;4.90;1.00;;;;;;4973568;28;20217;-73
2021/11/26 06:50:56;;;;;;;30.43;17.43;;;4.80;1.00;;;;;;4974017;28;20237;-67
2021/11/26 06:53:23;;;;;;;30.47;20.37;;;4.90;1.00;;;;;;4973646;28;20205;-67
2021/11/26 06:55:52;;;;;;;29.33;19.07;;;4.80;1.00;;;;;;4973716;28;20217;-68
2021/11/26 06:58:19;;;;;;;30.00;19.43;;;4.90;1.00;;;;;;4973693;28;20210;-67
2021/11/26 07:00:46;;;;;;;29.30;18.87;;;5.00;1.00;;;;;;4974196;28;20201;-70
2021/11/26 07:03:13;;;;;;;28.83;19.47;;;5.00;1.00;;;;;;4974484;28;20268;-68
2021/11/26 07:05:40;;;;;;;27.87;18.80;;;4.90;1.00;;;;;;4973776;28;20210;-80
2021/11/26 07:08:07;;;;;;;27.80;18.40;;;4.90;1.00;;;;;;4973877;28;20205;-74
2021/11/26 07:10:34;;;;;;;32.27;20.50;;;4.80;1.00;;;;;;4973268;28;20230;-72
2021/11/26 07:13:02;;;;;;;29.50;19.53;;;4.80;1.00;;;;;;4973934;28;20205;-68
2021/11/26 07:15:30;;;;;;;29.10;18.83;;;4.80;1.00;;;;;;4973132;28;20280;-68
2021/11/26 07:17:57;;;;;;;27.07;19.03;;;4.80;1.00;;;;;;4973776;28;20213;-80
2021/11/26 07:20:24;;;;;;;29.97;19.07;;;4.80;99.90;;;;;;4973236;28;20655;-80
2021/11/26 07:22:51;;;;;;;31.03;20.43;;;4.80;99.90;;;;;;4973462;28;20272;-69
2021/11/26 07:25:18;;;;;;;30.90;20.03;;;4.90;99.90;;;;;;4973728;28;20209;-76
2021/11/26 07:27:45;;;;;;;30.00;20.87;;;4.90;99.90;;;;;;4973939;28;20206;-79
2021/11/26 07:30:14;;;;;;;29.37;19.63;;;4.90;99.90;;;;;;4973623;28;20229;-67
2021/11/26 07:32:41;;;;;;;31.57;17.97;;;4.80;99.90;;;;;;4972618;28;20206;-67
2021/11/26 07:35:09;;;;;;;23.10;18.50;;;4.80;99.90;;;;;;4973149;28;20256;-72
2021/11/26 07:37:36;;;;;;;27.80;18.50;;;4.80;99.90;;;;;;4972805;28;20210;-68
2021/11/26 07:40:05;;;;;;;29.83;18.97;;;4.70;99.90;;;;;;4972683;28;20627;-67
2021/11/26 07:42:32;;;;;;;35.23;20.20;;;4.80;99.90;;;;;;4972503;28;20639;-67
2021/11/26 07:44:59;;;;;;;26.10;18.87;;;4.80;99.90;;;;;;4972946;28;20633;-80
2021/11/26 07:47:27;;;;;;;28.30;19.77;;;4.80;99.90;;;;;;4972531;28;20261;-67
2021/11/26 07:49:54;;;;;;;27.83;16.20;;;4.80;99.90;;;;;;4972672;28;20217;-73
2021/11/26 07:52:21;;;;;;;28.03;17.60;;;4.70;99.90;;;;;;4972895;28;20213;-69
2021/11/26 07:54:48;;;;;;;23.53;17.17;;;4.70;99.90;;;;;;4972914;28;20260;-67
2021/11/26 07:57:15;;;;;;;28.10;18.33;;;4.70;99.90;;;;;;4973039;28;20213;-72
2021/11/26 07:59:42;;;;;;;26.57;17.83;;;4.80;99.90;;;;;;4972810;28;20670;-67
2021/11/26 08:02:09;;;;;;;25.40;15.87;;;4.70;99.90;;;;;;4972573;28;20209;-83
2021/11/26 08:04:38;;;;;;;24.33;16.80;;;4.80;99.90;;;;;;4972099;28;20666;-67
2021/11/26 08:07:05;;;;;;;24.93;17.27;;;4.70;99.90;;;;;;4972758;28;20202;-67
2021/11/26 08:09:32;;;;;;;25.70;16.47;;;4.80;99.90;;;;;;4972625;28;20213;-68
2021/11/26 08:11:59;;;;;;;22.50;16.97;;;4.80;99.90;;;;;;4971710;28;20233;-81
2021/11/26 08:14:26;;;;;;;22.70;14.87;;;4.80;99.90;;;;;;4972063;28;20670;-77
2021/11/26 08:16:55;;;;;;;22.57;16.83;;;4.90;99.90;;;;;;4972263;28;20213;-83
2021/11/26 08:19:24;;;;;;;20.23;14.80;;;4.90;99.90;;;;;;4972103;28;20212;-76
2021/11/26 08:21:53;;;;;;;26.73;16.10;;;4.90;99.90;;;;;;4972209;28;20217;-72
2021/11/26 08:24:20;;;;;;;22.47;15.20;;;5.00;99.90;;;;;;4971908;28;20259;-67
2021/11/26 08:26:48;;;;;;;26.93;14.63;;;5.00;99.90;;;;;;4972089;28;20209;-68
2021/11/26 08:29:15;;;;;;;20.93;14.47;;;4.90;99.90;;;;;;4972467;28;20260;-79
2021/11/26 08:31:42;;;;;;;19.40;13.87;;;4.90;99.90;;;;;;4971753;28;20771;-78
2021/11/26 08:34:10;;;;;;;21.63;14.40;;;5.00;99.90;;;;;;4972112;28;20268;-78
2021/11/26 08:36:38;;;;;;;17.57;12.33;;;5.00;99.90;;;;;;4971657;28;20209;-68
2021/11/26 08:39:09;;;;;;;23.23;15.97;;;5.00;99.90;;;;;;4971836;28;20297;-77
2021/11/26 08:41:37;;;;;;;17.40;11.93;;;5.00;99.90;;;;;;4971500;28;20268;-80
2021/11/26 08:44:05;;;;;;;20.47;14.90;;;5.00;99.90;;;;;;4972172;28;20260;-70
2021/11/26 08:46:32;;;;;;;18.33;13.17;;;5.00;99.90;;;;;;4971607;28;20641;-68
2021/11/26 08:48:59;;;;;;;21.27;14.60;;;5.00;99.90;;;;;;4971855;28;20221;-80
2021/11/26 08:51:28;;;;;;;18.00;12.87;;;5.00;99.90;;;;;;4971509;28;20291;-78
2021/11/26 08:53:56;;;;;;;22.97;16.87;;;5.00;99.90;;;;;;4972155;28;20213;-78
2021/11/26 08:56:25;;;;;;;21.80;15.63;;;5.00;99.90;;;;;;4971661;28;20244;-75
2021/11/26 08:58:53;;;;;;;21.00;13.70;;;5.10;99.90;;;;;;4972507;28;20209;-67
2021/11/26 09:01:20;;;;;;;18.40;12.63;;;5.00;99.90;;;;;;4971700;28;20260;-68
2021/11/26 09:03:49;;;;;;;17.53;12.93;;;5.00;99.90;;;;;;4972171;28;20205;-67
2021/11/26 09:06:16;;;;;;;23.63;14.63;;;5.10;99.90;;;;;;4972288;28;20216;-68
2021/11/26 09:08:44;;;;;;;18.57;12.33;;;5.20;99.90;;;;;;4971322;28;20293;-67
2021/11/26 09:11:11;;;;;;;19.37;15.03;;;5.30;99.90;;;;;;4971396;28;20284;-68
2021/11/26 09:13:40;;;;;;;19.03;12.20;;;5.30;99.90;;;;;;4971341;28;20264;-68
2021/11/26 09:16:07;;;;;;;16.40;11.17;;;5.20;99.90;;;;;;4971746;28;20513;-78
2021/11/26 09:18:34;;;;;;;19.60;11.57;;;5.20;99.90;;;;;;4971358;28;20213;-68
2021/11/26 09:21:01;;;;;;;17.43;13.00;;;5.20;99.90;;;;;;4971821;28;20217;-76
2021/11/26 09:23:28;;;;;;;15.13;11.53;;;5.30;99.90;;;;;;4972988;28;20213;-78
2021/11/26 09:25:56;;;;;;;17.53;12.97;;;5.30;99.90;;;;;;4975249;28;20217;-68
2021/11/26 09:28:24;;;;;;;18.53;13.37;;;5.30;99.90;;;;;;4975322;28;20210;-74
2021/11/26 09:30:52;;;;;;;15.73;11.03;;;5.40;99.90;;;;;;4975338;28;20291;-75
2021/11/26 09:33:22;;;;;;;16.07;10.67;;;5.40;99.90;;;;;;4974969;28;20677;-67
2021/11/26 09:35:50;;;;;;;16.20;11.47;;;5.40;99.90;;;;;;4975409;28;20290;-67
2021/11/26 09:38:18;;;;;;;19.33;13.33;;;5.40;99.90;;;;;;4974963;28;20272;-68
2021/11/26 09:40:45;;;;;;;16.00;12.37;;;5.40;99.90;;;;;;4975587;28;20213;-71
2021/11/26 09:43:13;;;;;;;15.67;11.20;;;5.40;99.90;;;;;;4975507;28;20637;-72
2021/11/26 09:45:41;;;;;;;16.53;12.43;;;5.50;99.90;;;;;;4974869;28;20265;-69
2021/11/26 09:48:10;;;;;;;18.77;11.37;;;5.50;99.90;;;;;;4975049;28;20571;-75
2021/11/26 09:50:38;;;;;;;17.07;11.80;;;5.50;99.90;;;;;;4974720;28;20213;-72
2021/11/26 09:53:18;;;;;;;15.67;11.77;;;5.50;99.90;;;;;;4974887;28;20213;-74
2021/11/26 09:55:49;;;;;;;16.80;12.70;;;5.50;99.90;;;;;;4975511;28;20288;-76
2021/11/26 09:58:17;;;;;;;17.20;12.03;;;5.60;99.90;;;;;;4975306;28;20245;-67
2021/11/26 10:00:45;;;;;;;18.87;12.60;;;5.70;99.90;;;;;;4975002;28;20666;-67
2021/11/26 10:03:13;;;;;;;18.30;13.30;;;5.70;99.90;;;;;;4974731;28;20689;-78
2021/11/26 10:05:40;;;;;;;17.47;11.97;;;5.70;99.90;;;;;;4974839;28;20232;-79
2021/11/26 10:08:08;;;;;;;20.03;11.40;;;5.70;99.90;;;;;;4974519;28;20685;-69
2021/11/26 10:10:37;;;;;;;19.63;12.10;;;5.80;99.90;;;;;;4974282;28;20213;-68
2021/11/26 10:13:06;;;;;;;16.07;12.47;;;5.80;99.90;;;;;;4974584;28;20241;-79
2021/11/26 10:15:38;;;;;;;17.93;12.17;;;5.80;99.90;;;;;;4974221;28;20210;-74
2021/11/26 10:18:11;;;;;;;18.47;10.33;;;5.80;99.90;;;;;;4974565;28;20206;-69
2021/11/26 10:20:54;;;;;;;15.43;12.20;;;5.80;99.90;;;;;;4974035;28;20737;-71
2021/11/26 10:23:24;;;;;;;16.77;11.10;;;5.80;99.90;;;;;;4973785;28;20220;-69
2021/11/26 10:25:51;;;;;;;15.40;11.17;;;5.80;99.90;;;;;;4974331;28;20217;-67
2021/11/26 10:28:19;;;;;;;16.10;11.33;;;5.70;99.90;;;;;;4974387;28;20209;-73
2021/11/26 10:30:48;;;;;;;17.73;11.60;;;5.80;99.90;;;;;;4974335;28;20686;-67
2021/11/26 10:33:18;;;;;;;14.27;11.10;;;5.90;99.90;;;;;;4974380;28;20201;-66
2021/11/26 10:35:49;;;;;;;16.37;11.27;;;5.90;99.90;;;;;;4974233;28;20209;-66
2021/11/26 10:38:20;;;;;;;15.43;10.40;;;5.80;99.90;;;;;;4974099;28;20201;-75
2021/11/26 10:40:51;;;;;;;13.47;10.40;;;5.90;99.90;;;;;;4973997;28;20202;-67
2021/11/26 10:43:19;;;;;;;15.10;10.50;;;5.90;99.90;;;;;;4974202;28;20209;-67
2021/11/26 10:59:48;;;;;;;15.30;11.33;;;6.20;99.90;;;;;;4941460;28;20216;-68
2021/11/26 11:02:25;;;;;;;18.63;13.40;;;6.40;99.90;;;;;;4973975;28;20670;-67
2021/11/26 11:04:52;;;;;;;16.03;11.50;;;6.60;99.90;;;;;;4973705;28;20208;-67
2021/11/26 11:07:21;;;;;;;16.23;11.13;;;6.90;99.90;;;;;;4973292;28;20205;-68
2021/11/26 11:09:52;;;;;;;14.63;10.43;;;7.20;99.90;;;;;;4973678;28;20636;-68
2021/11/26 11:12:28;;;;;;;16.70;10.23;;;7.50;99.90;;;;;;4973471;28;20234;-67
2021/11/26 11:14:57;;;;;;;13.97;10.30;;;7.50;99.90;;;;;;4973858;28;20205;-67
2021/11/26 11:17:27;;;;;;;14.30;10.47;;;7.50;99.90;;;;;;4972935;28;20640;-76
2021/11/26 11:19:57;;;;;;;12.63;9.73;;;7.60;99.90;;;;;;4973260;28;20210;-68
2021/11/26 11:22:26;;;;;;;13.50;10.03;;;7.80;99.90;;;;;;4972798;28;20216;-67
2021/11/26 11:24:54;;;;;;;13.00;9.70;;;8.00;99.90;;;;;;4973444;28;20696;-67
2021/11/26 11:27:21;;;;;;;12.10;9.17;;;8.20;99.90;;;;;;4972858;28;20209;-77
2021/11/26 11:29:48;;;;;;;14.17;10.20;;;8.00;99.90;;;;;;4973646;28;20276;-68
2021/11/26 11:32:16;;;;;;;16.90;10.30;;;8.10;99.90;;;;;;4973206;28;20292;-78
2021/11/26 11:34:46;;;;;;;13.53;9.53;;;8.10;99.90;;;;;;4972849;28;20292;-80
2021/11/26 11:37:17;;;;;;;13.03;9.70;;;7.90;99.90;;;;;;4973441;28;20271;-71
2021/11/26 11:39:49;;;;;;;12.60;9.23;;;7.90;99.90;;;;;;4973581;28;20231;-68
2021/11/26 11:42:25;;;;;;;16.57;12.47;;;8.10;99.90;;;;;;4973437;28;20260;-68
2021/11/26 11:44:57;;;;;;;12.03;8.80;;;8.30;99.90;;;;;;4973108;28;20205;-68
2021/11/26 11:47:25;;;;;;;14.60;10.50;;;8.20;99.90;;;;;;4971713;28;20225;-67
2021/11/26 11:50:05;;;;;;;13.93;9.43;;;8.20;99.90;;;;;;4972700;28;20209;-67
2021/11/26 11:52:44;;;;;;;17.27;11.43;;;8.20;99.90;;;;;;4972603;28;20267;-67
2021/11/26 11:55:31;;;;;;;16.53;9.07;;;8.30;99.90;;;;;;4972742;28;20205;-78
2021/11/26 11:58:11;;;;;;;12.77;9.17;;;8.10;99.90;;;;;;4972979;28;20205;-81
2021/11/26 12:00:39;;;;;;;9.83;7.57;;;7.90;99.90;;;;;;4972567;28;20600;-68
2021/11/26 12:03:10;;;;;;;13.70;9.20;;;7.90;99.90;;;;;;4972591;28;20217;-79
2021/11/26 12:05:37;;;;;;;11.67;8.90;;;8.00;99.90;;;;;;4972038;28;20214;-67
2021/11/26 12:08:12;;;;;;;14.10;9.07;;;8.10;99.90;;;;;;4972587;28;20264;-67
2021/11/26 12:10:50;;;;;;;24.93;14.30;;;8.40;99.90;;;;;;4972015;28;20213;-78
2021/11/26 12:13:29;;;;;;;12.23;8.17;;;8.60;99.90;;;;;;4972711;28;20590;-68
2021/11/26 12:16:08;;;;;;;14.43;9.53;;;8.60;99.90;;;;;;4972666;28;20288;-80
2021/11/26 12:18:44;;;;;;;15.67;10.10;;;8.40;99.90;;;;;;4971522;28;20587;-67
2021/11/26 12:21:13;;;;;;;12.43;9.90;;;8.40;99.90;;;;;;4972480;28;20296;-78
2021/11/26 12:23:58;;;;;;;13.77;9.87;;;8.20;99.90;;;;;;4971649;28;20732;-67
2021/11/26 12:26:30;;;;;;;20.13;12.60;;;8.30;99.90;;;;;;4971743;28;20673;-77
2021/11/26 12:29:00;;;;;;;15.90;9.80;;;8.50;99.90;;;;;;4971987;28;20240;-68
2021/11/26 12:31:32;;;;;;;15.20;9.43;;;8.50;99.90;;;;;;4976003;28;20213;-81
2021/11/26 12:34:02;;;;;;;13.37;9.83;;;8.40;99.90;;;;;;4980537;28;20292;-68
2021/11/26 12:36:41;;;;;;;14.30;9.77;;;8.20;99.90;;;;;;4971701;28;20213;-77
2021/11/26 12:39:11;;;;;;;12.00;8.80;;;8.10;99.90;;;;;;4972293;28;20217;-67
2021/11/26 12:41:41;;;;;;;12.60;9.27;;;7.90;99.90;;;;;;4971658;28;20248;-77
2021/11/26 12:44:13;;;;;;;12.97;8.80;;;8.00;99.90;;;;;;4972430;28;20209;-78
2021/11/26 12:46:41;;;;;;;12.17;9.47;;;8.20;99.90;;;;;;4971329;28;20749;-72
2021/11/26 12:51:53;;;;;;;17.57;11.07;;;8.20;99.90;;;;;;4968940;28;20233;-68
2021/11/26 12:54:26;;;;;;;11.73;8.77;;;8.10;99.90;;;;;;4971518;28;20213;-67
2021/11/26 12:56:55;;;;;;;10.50;8.63;;;8.00;99.90;;;;;;4971959;28;20287;-68
2021/11/26 12:59:31;;;;;;;10.00;7.77;;;8.00;99.90;;;;;;4971298;28;20284;-69
2021/11/26 13:01:58;;;;;;;13.33;10.13;;;8.00;99.90;;;;;;4971414;28;20236;-67
2021/11/26 13:04:25;;;;;;;12.43;9.33;;;8.00;99.90;;;;;;4971441;28;20244;-74
2021/11/26 13:07:06;;;;;;;12.80;8.30;;;8.00;99.90;;;;;;4971315;28;20209;-72